PWSweather.com
Personal Weather Stations
Station Observations
PARKVIEWX
Lake Worth Lake Charleston Parkview, Lake Worth, FL 33467

Lake Worth Lake Charleston ParkviewLake Worth, FL 33467

Lat: 26.565627, Lon: -80.162068

Elevation: 33

Station Type: Davis Vantage Pro 2

Latest ConditionsUpdated 4:22:54 AM EDT Monday, Aug 26, 2019
Currently Today's Max Today's Min Today's Average
Temperature 80.4°F26.9°C 81.3°F27.4°C 80.2°F26.8°C 80.7°F27.1°C
Dew Point 78.6°F25.9°C 79.2°F26.2°C 77.9°F25.5°C 78.6°F25.9°C
Winds 0.9 mph WNW1.4 kmh WNW 2.0 mph -3.2 kmh - - 1.0 mph 1.6 kmh
Wind Gusts 2.0 mph3.2 kmh 3.0 mph4.8 kmh - -
Humidity 94% 94% 90% 93%
Pressure 29.96 in1014.6 mb 30.00 in1015.9 mb 29.96 in1014.6 mb -
Hour Temp Dew Point Humidity Winds Wind Gusts Pressure Precip Precip Rate Daily Precip Total
04:22 AM 80.4°F26.9°C 78.6°F25.9°C 94% 0.9 mph WNW1.4 kmh WNW 2.0 mph3.2 kmh 29.96 in1014.6 mb 0.00 in0.0 mm 0.00 in0.0 mm 0.00 in0.0 mm
04:21 AM 80.4°F26.9°C 78.6°F25.9°C 94% 0.9 mph WNW1.4 kmh WNW 2.0 mph3.2 kmh 29.96 in1014.6 mb 0.00 in0.0 mm 0.00 in0.0 mm 0.00 in0.0 mm
04:20 AM 80.4°F26.9°C 78.6°F25.9°C 94% 0.9 mph WNW1.4 kmh WNW 0.9 mph1.4 kmh 29.96 in1014.6 mb 0.00 in0.0 mm 0.00 in0.0 mm 0.00 in0.0 mm
04:19 AM 80.4°F26.9°C 78.6°F25.9°C 94% 0.9 mph WNW1.4 kmh WNW 2.0 mph3.2 kmh 29.96 in1014.6 mb 0.00 in0.0 mm 0.00 in0.0 mm 0.00 in0.0 mm
04:18 AM 80.4°F26.9°C 78.6°F25.9°C 94% 0.9 mph WNW1.4 kmh WNW 2.0 mph3.2 kmh 29.96 in1014.6 mb 0.00 in0.0 mm 0.00 in0.0 mm 0.00 in0.0 mm
04:17 AM 80.4°F26.9°C 78.6°F25.9°C 94% 0.9 mph WNW1.4 kmh WNW 2.0 mph3.2 kmh 29.96 in1014.6 mb 0.00 in0.0 mm 0.00 in0.0 mm 0.00 in0.0 mm
04:16 AM 80.4°F26.9°C 78.6°F25.9°C 94% 0.9 mph WNW1.4 kmh WNW 2.0 mph3.2 kmh 29.96 in1014.6 mb 0.00 in0.0 mm 0.00 in0.0 mm 0.00 in0.0 mm
04:15 AM 80.4°F26.9°C 78.6°F25.9°C 94% 0.9 mph WNW1.4 kmh WNW 2.0 mph3.2 kmh 29.96 in1014.6 mb 0.00 in0.0 mm 0.00 in0.0 mm 0.00 in0.0 mm
04:14 AM 80.4°F26.9°C 78.6°F25.9°C 94% 0.9 mph WNW1.4 kmh WNW 2.0 mph3.2 kmh 29.96 in1014.6 mb 0.00 in0.0 mm 0.00 in0.0 mm 0.00 in0.0 mm
04:13 AM 80.4°F26.9°C 78.6°F25.9°C 94% 0.9 mph WNW1.4 kmh WNW 2.0 mph3.2 kmh 29.96 in1014.6 mb 0.00 in0.0 mm 0.00 in0.0 mm 0.00 in0.0 mm
04:12 AM 80.4°F26.9°C 78.6°F25.9°C 94% 0.9 mph WNW1.4 kmh WNW 2.0 mph3.2 kmh 29.96 in1014.6 mb 0.00 in0.0 mm 0.00 in0.0 mm 0.00 in0.0 mm
04:11 AM 80.4°F26.9°C 78.6°F25.9°C 94% 0.9 mph WNW1.4 kmh WNW 2.0 mph3.2 kmh 29.96 in1014.6 mb 0.00 in0.0 mm 0.00 in0.0 mm 0.00 in0.0 mm
04:10 AM 80.4°F26.9°C 78.6°F25.9°C 94% 0.9 mph WNW1.4 kmh WNW 2.0 mph3.2 kmh 29.96 in1014.6 mb 0.00 in0.0 mm 0.00 in0.0 mm 0.00 in0.0 mm
04:09 AM 80.4°F26.9°C 78.6°F25.9°C 94% 0.9 mph WNW1.4 kmh WNW 2.0 mph3.2 kmh 29.96 in1014.6 mb 0.00 in0.0 mm 0.00 in0.0 mm 0.00 in0.0 mm
04:08 AM 80.4°F26.9°C 78.6°F25.9°C 94% 0.9 mph WNW1.4 kmh WNW 2.0 mph3.2 kmh 29.96 in1014.6 mb 0.00 in0.0 mm 0.00 in0.0 mm 0.00 in0.0 mm
04:07 AM 80.4°F26.9°C 78.6°F25.9°C 94% 0.9 mph WNW1.4 kmh WNW 0.9 mph1.4 kmh 29.96 in1014.6 mb 0.00 in0.0 mm 0.00 in0.0 mm 0.00 in0.0 mm
04:06 AM 80.4°F26.9°C 78.6°F25.9°C 94% 0.9 mph WNW1.4 kmh WNW 3.0 mph4.8 kmh 29.96 in1014.6 mb 0.00 in0.0 mm 0.00 in0.0 mm 0.00 in0.0 mm
04:05 AM 80.6°F27.0°C 78.6°F25.9°C 94% 0.9 mph WNW1.4 kmh WNW 3.0 mph4.8 kmh 29.96 in1014.6 mb 0.00 in0.0 mm 0.00 in0.0 mm 0.00 in0.0 mm
04:04 AM 80.6°F27.0°C 78.6°F25.9°C 94% 0.9 mph WNW1.4 kmh WNW 2.0 mph3.2 kmh 29.96 in1014.6 mb 0.00 in0.0 mm 0.00 in0.0 mm 0.00 in0.0 mm
04:03 AM 80.6°F27.0°C 78.6°F25.9°C 94% 0.9 mph WNW1.4 kmh WNW 2.0 mph3.2 kmh 29.96 in1014.6 mb 0.00 in0.0 mm 0.00 in0.0 mm 0.00 in0.0 mm
04:02 AM 80.6°F27.0°C 78.6°F25.9°C 94% 0.9 mph WNW1.4 kmh WNW 2.0 mph3.2 kmh 29.96 in1014.6 mb 0.00 in0.0 mm 0.00 in0.0 mm 0.00 in0.0 mm
04:01 AM 80.6°F27.0°C 78.6°F25.9°C 94% 0.9 mph WNW1.4 kmh WNW 0.9 mph1.4 kmh 29.96 in1014.6 mb 0.00 in0.0 mm 0.00 in0.0 mm 0.00 in0.0 mm
04:00 AM 80.6°F27.0°C 78.6°F25.9°C 94% 0.9 mph WNW1.4 kmh WNW 0.9 mph1.4 kmh 29.96 in1014.6 mb 0.00 in0.0 mm 0.00 in0.0 mm 0.00 in0.0 mm
03:59 AM 80.6°F27.0°C 78.6°F25.9°C 94% 0.9 mph WNW1.4 kmh WNW 2.0 mph3.2 kmh 29.96 in1014.6 mb 0.00 in0.0 mm 0.00 in0.0 mm 0.00 in0.0 mm
03:58 AM 80.6°F27.0°C 78.6°F25.9°C 94% 0.9 mph WNW1.4 kmh WNW 2.0 mph3.2 kmh 29.96 in1014.6 mb 0.00 in0.0 mm 0.00 in0.0 mm 0.00 in0.0 mm
03:57 AM 80.8°F27.1°C 78.8°F26.0°C 94% 2.0 mph WNW3.2 kmh WNW 2.0 mph3.2 kmh 29.96 in1014.6 mb 0.00 in0.0 mm 0.00 in0.0 mm 0.00 in0.0 mm
03:56 AM 80.8°F27.1°C 78.8°F26.0°C 94% 2.0 mph WNW3.2 kmh WNW 2.9 mph4.7 kmh 29.96 in1014.6 mb 0.00 in0.0 mm 0.00 in0.0 mm 0.00 in0.0 mm
03:55 AM 80.6°F27.0°C 78.6°F25.9°C 94% 2.0 mph WNW3.2 kmh WNW 2.9 mph4.7 kmh 29.96 in1014.6 mb 0.00 in0.0 mm 0.00 in0.0 mm 0.00 in0.0 mm
03:54 AM 80.6°F27.0°C 78.6°F25.9°C 94% 2.0 mph WNW3.2 kmh WNW 2.0 mph3.2 kmh 29.96 in1014.6 mb 0.00 in0.0 mm 0.00 in0.0 mm 0.00 in0.0 mm
03:53 AM 80.6°F27.0°C 78.6°F25.9°C 94% 2.0 mph WNW3.2 kmh WNW 2.9 mph4.7 kmh 29.96 in1014.6 mb 0.00 in0.0 mm 0.00 in0.0 mm 0.00 in0.0 mm
03:52 AM 80.6°F27.0°C 78.6°F25.9°C 94% 0.9 mph WNW1.4 kmh WNW 2.9 mph4.7 kmh 29.96 in1014.6 mb 0.00 in0.0 mm 0.00 in0.0 mm 0.00 in0.0 mm
03:51 AM 80.6°F27.0°C 78.6°F25.9°C 94% 0.9 mph WNW1.4 kmh WNW 2.0 mph3.2 kmh 29.96 in1014.6 mb 0.00 in0.0 mm 0.00 in0.0 mm 0.00 in0.0 mm
03:50 AM 80.6°F27.0°C 78.6°F25.9°C 94% 2.0 mph WNW3.2 kmh WNW 2.0 mph3.2 kmh 29.96 in1014.6 mb 0.00 in0.0 mm 0.00 in0.0 mm 0.00 in0.0 mm
03:49 AM 80.6°F27.0°C 78.6°F25.9°C 94% 2.0 mph WNW3.2 kmh WNW 2.0 mph3.2 kmh 29.96 in1014.6 mb 0.00 in0.0 mm 0.00 in0.0 mm 0.00 in0.0 mm
03:48 AM 80.6°F27.0°C 78.6°F25.9°C 94% 0.9 mph WNW1.4 kmh WNW 2.0 mph3.2 kmh 29.97 in1014.9 mb 0.00 in0.0 mm 0.00 in0.0 mm 0.00 in0.0 mm
03:47 AM 80.6°F27.0°C 78.6°F25.9°C 94% 0.9 mph WNW1.4 kmh WNW 3.0 mph4.8 kmh 29.97 in1014.9 mb 0.00 in0.0 mm 0.00 in0.0 mm 0.00 in0.0 mm
03:46 AM 80.6°F27.0°C 78.6°F25.9°C 94% 2.0 mph WNW3.2 kmh WNW 2.0 mph3.2 kmh 29.96 in1014.6 mb 0.00 in0.0 mm 0.00 in0.0 mm 0.00 in0.0 mm
03:45 AM 80.6°F27.0°C 78.6°F25.9°C 94% 0.9 mph WNW1.4 kmh WNW 2.0 mph3.2 kmh 29.97 in1014.9 mb 0.00 in0.0 mm 0.00 in0.0 mm 0.00 in0.0 mm
03:44 AM 80.6°F27.0°C 78.6°F25.9°C 94% 0.9 mph WNW1.4 kmh WNW 2.0 mph3.2 kmh 29.96 in1014.6 mb 0.00 in0.0 mm 0.00 in0.0 mm 0.00 in0.0 mm
03:43 AM 80.6°F27.0°C 78.6°F25.9°C 94% 0.9 mph WNW1.4 kmh WNW 2.0 mph3.2 kmh 29.96 in1014.6 mb 0.00 in0.0 mm 0.00 in0.0 mm 0.00 in0.0 mm
03:42 AM 80.6°F27.0°C 78.6°F25.9°C 94% 2.0 mph WNW3.2 kmh WNW 2.0 mph3.2 kmh 29.96 in1014.6 mb 0.00 in0.0 mm 0.00 in0.0 mm 0.00 in0.0 mm
03:41 AM 80.6°F27.0°C 78.6°F25.9°C 94% 0.9 mph WNW1.4 kmh WNW 2.0 mph3.2 kmh 29.96 in1014.6 mb 0.00 in0.0 mm 0.00 in0.0 mm 0.00 in0.0 mm
03:40 AM 80.6°F27.0°C 78.6°F25.9°C 94% 0.9 mph WNW1.4 kmh WNW 2.0 mph3.2 kmh 29.96 in1014.6 mb 0.00 in0.0 mm 0.00 in0.0 mm 0.00 in0.0 mm
03:39 AM 80.6°F27.0°C 78.6°F25.9°C 94% 2.0 mph WNW3.2 kmh WNW 2.0 mph3.2 kmh 29.97 in1014.9 mb 0.00 in0.0 mm 0.00 in0.0 mm 0.00 in0.0 mm
03:38 AM 80.6°F27.0°C 78.6°F25.9°C 94% 2.0 mph WNW3.2 kmh WNW 2.0 mph3.2 kmh 29.96 in1014.6 mb 0.00 in0.0 mm 0.00 in0.0 mm 0.00 in0.0 mm
03:37 AM 80.6°F27.0°C 78.6°F25.9°C 94% 2.0 mph WNW3.2 kmh WNW 3.0 mph4.8 kmh 29.97 in1014.9 mb 0.00 in0.0 mm 0.00 in0.0 mm 0.00 in0.0 mm
03:36 AM 80.8°F27.1°C 78.8°F26.0°C 94% 0.9 mph WNW1.4 kmh WNW 3.0 mph4.8 kmh 29.97 in1014.9 mb 0.00 in0.0 mm 0.00 in0.0 mm 0.00 in0.0 mm
03:35 AM 80.8°F27.1°C 78.8°F26.0°C 94% 0.9 mph WNW1.4 kmh WNW 2.0 mph3.2 kmh 29.97 in1014.9 mb 0.00 in0.0 mm 0.00 in0.0 mm 0.00 in0.0 mm
03:34 AM 80.8°F27.1°C 78.8°F26.0°C 94% 0.9 mph WNW1.4 kmh WNW 2.0 mph3.2 kmh 29.97 in1014.9 mb 0.00 in0.0 mm 0.00 in0.0 mm 0.00 in0.0 mm
03:33 AM 80.8°F27.1°C 78.8°F26.0°C 94% 0.9 mph WNW1.4 kmh WNW 2.0 mph3.2 kmh 29.97 in1014.9 mb 0.00 in0.0 mm 0.00 in0.0 mm 0.00 in0.0 mm
03:32 AM 80.8°F27.1°C 78.8°F26.0°C 94% 0.9 mph WNW1.4 kmh WNW 2.0 mph3.2 kmh 29.97 in1014.9 mb 0.00 in0.0 mm 0.00 in0.0 mm 0.00 in0.0 mm
03:31 AM 80.8°F27.1°C 78.8°F26.0°C 94% 0.9 mph WNW1.4 kmh WNW 2.0 mph3.2 kmh 29.97 in1014.9 mb 0.00 in0.0 mm 0.00 in0.0 mm 0.00 in0.0 mm
03:30 AM 80.6°F27.0°C 78.6°F25.9°C 94% 0.9 mph WNW1.4 kmh WNW 2.0 mph3.2 kmh 29.97 in1014.9 mb 0.00 in0.0 mm 0.00 in0.0 mm 0.00 in0.0 mm
03:29 AM 80.8°F27.1°C 78.8°F26.0°C 94% 0.9 mph WNW1.4 kmh WNW 2.0 mph3.2 kmh 29.97 in1014.9 mb 0.00 in0.0 mm 0.00 in0.0 mm 0.00 in0.0 mm
03:28 AM 80.8°F27.1°C 78.8°F26.0°C 94% 0.9 mph WNW1.4 kmh WNW 2.0 mph3.2 kmh 29.97 in1014.9 mb 0.00 in0.0 mm 0.00 in0.0 mm 0.00 in0.0 mm
03:27 AM 80.8°F27.1°C 78.8°F26.0°C 94% 0.9 mph WNW1.4 kmh WNW 2.0 mph3.2 kmh 29.97 in1014.9 mb 0.00 in0.0 mm 0.00 in0.0 mm 0.00 in0.0 mm
03:26 AM 80.8°F27.1°C 78.8°F26.0°C 94% 0.9 mph WNW1.4 kmh WNW 3.0 mph4.8 kmh 29.97 in1014.9 mb 0.00 in0.0 mm 0.00 in0.0 mm 0.00 in0.0 mm
03:25 AM 80.8°F27.1°C 78.8°F26.0°C 94% 0.9 mph WNW1.4 kmh WNW 3.0 mph4.8 kmh 29.97 in1014.9 mb 0.00 in0.0 mm 0.00 in0.0 mm 0.00 in0.0 mm
03:24 AM 80.8°F27.1°C 78.8°F26.0°C 94% 2.0 mph WNW3.2 kmh WNW 2.0 mph3.2 kmh 29.97 in1014.9 mb 0.00 in0.0 mm 0.00 in0.0 mm 0.00 in0.0 mm
03:23 AM 80.8°F27.1°C 78.8°F26.0°C 94% 2.0 mph WNW3.2 kmh WNW 2.0 mph3.2 kmh 29.97 in1014.9 mb 0.00 in0.0 mm 0.00 in0.0 mm 0.00 in0.0 mm
03:22 AM 80.8°F27.1°C 78.8°F26.0°C 94% 2.0 mph WNW3.2 kmh WNW 2.0 mph3.2 kmh 29.97 in1014.9 mb 0.00 in0.0 mm 0.00 in0.0 mm 0.00 in0.0 mm
03:21 AM 80.8°F27.1°C 78.8°F26.0°C 94% 2.0 mph WNW3.2 kmh WNW 2.0 mph3.2 kmh 29.97 in1014.9 mb 0.00 in0.0 mm 0.00 in0.0 mm 0.00 in0.0 mm
03:20 AM 80.8°F27.1°C 78.8°F26.0°C 94% 2.0 mph WNW3.2 kmh WNW 2.0 mph3.2 kmh 29.97 in1014.9 mb 0.00 in0.0 mm 0.00 in0.0 mm 0.00 in0.0 mm
03:19 AM 80.8°F27.1°C 78.8°F26.0°C 94% 2.0 mph WNW3.2 kmh WNW 2.0 mph3.2 kmh 29.97 in1014.9 mb 0.00 in0.0 mm 0.00 in0.0 mm 0.00 in0.0 mm
03:18 AM 80.8°F27.1°C 78.8°F26.0°C 94% 2.0 mph WNW3.2 kmh WNW 2.0 mph3.2 kmh 29.97 in1014.9 mb 0.00 in0.0 mm 0.00 in0.0 mm 0.00 in0.0 mm
03:17 AM 80.8°F27.1°C 78.8°F26.0°C 94% 2.0 mph WNW3.2 kmh WNW 2.0 mph3.2 kmh 29.97 in1014.9 mb 0.00 in0.0 mm 0.00 in0.0 mm 0.00 in0.0 mm
03:16 AM 80.8°F27.1°C 78.8°F26.0°C 94% 2.0 mph WNW3.2 kmh WNW 2.0 mph3.2 kmh 29.97 in1014.9 mb 0.00 in0.0 mm 0.00 in0.0 mm 0.00 in0.0 mm
03:15 AM 80.8°F27.1°C 78.8°F26.0°C 94% 2.0 mph WNW3.2 kmh WNW 2.9 mph4.7 kmh 29.97 in1014.9 mb 0.00 in0.0 mm 0.00 in0.0 mm 0.00 in0.0 mm
03:14 AM 80.8°F27.1°C 78.8°F26.0°C 94% 2.0 mph WNW3.2 kmh WNW 2.9 mph4.7 kmh 29.96 in1014.6 mb 0.00 in0.0 mm 0.00 in0.0 mm 0.00 in0.0 mm
03:13 AM 80.8°F27.1°C 78.8°F26.0°C 94% 2.0 mph WSW3.2 kmh WSW 2.0 mph3.2 kmh 29.96 in1014.6 mb 0.00 in0.0 mm 0.00 in0.0 mm 0.00 in0.0 mm
03:12 AM 80.8°F27.1°C 78.8°F26.0°C 94% 2.0 mph WSW3.2 kmh WSW 2.0 mph3.2 kmh 29.96 in1014.6 mb 0.00 in0.0 mm 0.00 in0.0 mm 0.00 in0.0 mm
03:11 AM 80.6°F27.0°C 78.6°F25.9°C 94% 0.9 mph WSW1.4 kmh WSW 2.9 mph4.7 kmh 29.96 in1014.6 mb 0.00 in0.0 mm 0.00 in0.0 mm 0.00 in0.0 mm
03:10 AM 80.6°F27.0°C 78.6°F25.9°C 94% 0.9 mph WSW1.4 kmh WSW 2.9 mph4.7 kmh 29.96 in1014.6 mb 0.00 in0.0 mm 0.00 in0.0 mm 0.00 in0.0 mm
03:09 AM 80.6°F27.0°C 78.6°F25.9°C 94% 0.9 mph WSW1.4 kmh WSW 2.9 mph4.7 kmh 29.96 in1014.6 mb 0.00 in0.0 mm 0.00 in0.0 mm 0.00 in0.0 mm
03:08 AM 80.6°F27.0°C 78.6°F25.9°C 94% 0.9 mph WSW1.4 kmh WSW 3.0 mph4.8 kmh 29.96 in1014.6 mb 0.00 in0.0 mm 0.00 in0.0 mm 0.00 in0.0 mm
03:07 AM 80.4°F26.9°C 78.6°F25.9°C 94% 0.9 mph WSW1.4 kmh WSW 3.0 mph4.8 kmh 29.96 in1014.6 mb 0.00 in0.0 mm 0.00 in0.0 mm 0.00 in0.0 mm
03:06 AM 80.4°F26.9°C 78.6°F25.9°C 94% 0.9 mph WSW1.4 kmh WSW 2.0 mph3.2 kmh 29.96 in1014.6 mb 0.00 in0.0 mm 0.00 in0.0 mm 0.00 in0.0 mm
03:05 AM 80.4°F26.9°C 78.6°F25.9°C 94% 0.9 mph WSW1.4 kmh WSW 2.0 mph3.2 kmh 29.96 in1014.6 mb 0.00 in0.0 mm 0.00 in0.0 mm 0.00 in0.0 mm
03:04 AM 80.4°F26.9°C 78.6°F25.9°C 94% 0.9 mph WSW1.4 kmh WSW 2.0 mph3.2 kmh 29.96 in1014.6 mb 0.00 in0.0 mm 0.00 in0.0 mm 0.00 in0.0 mm
03:03 AM 80.4°F26.9°C 78.6°F25.9°C 94% 0.9 mph WSW1.4 kmh WSW 2.0 mph3.2 kmh 29.96 in1014.6 mb 0.00 in0.0 mm 0.00 in0.0 mm 0.00 in0.0 mm
03:02 AM 80.4°F26.9°C 78.6°F25.9°C 94% 0.9 mph WSW1.4 kmh WSW 0.9 mph1.4 kmh 29.96 in1014.6 mb 0.00 in0.0 mm 0.00 in0.0 mm 0.00 in0.0 mm
03:01 AM 80.4°F26.9°C 78.6°F25.9°C 94% 0.9 mph WSW1.4 kmh WSW 0.9 mph1.4 kmh 29.96 in1014.6 mb 0.00 in0.0 mm 0.00 in0.0 mm 0.00 in0.0 mm
03:00 AM 80.4°F26.9°C 78.6°F25.9°C 94% 0.9 mph WSW1.4 kmh WSW 0.9 mph1.4 kmh 29.96 in1014.6 mb 0.00 in0.0 mm 0.00 in0.0 mm 0.00 in0.0 mm
02:59 AM 80.4°F26.9°C 78.6°F25.9°C 94% 0.9 mph WSW1.4 kmh WSW 0.9 mph1.4 kmh 29.96 in1014.6 mb 0.00 in0.0 mm 0.00 in0.0 mm 0.00 in0.0 mm
02:58 AM 80.4°F26.9°C 78.6°F25.9°C 94% 0.9 mph WSW1.4 kmh WSW 2.0 mph3.2 kmh 29.96 in1014.6 mb 0.00 in0.0 mm 0.00 in0.0 mm 0.00 in0.0 mm
02:57 AM 80.4°F26.9°C 78.6°F25.9°C 94% 0.9 mph WSW1.4 kmh WSW 2.0 mph3.2 kmh 29.96 in1014.6 mb 0.00 in0.0 mm 0.00 in0.0 mm 0.00 in0.0 mm
02:56 AM 80.4°F26.9°C 78.6°F25.9°C 94% 0.9 mph WSW1.4 kmh WSW 0.9 mph1.4 kmh 29.96 in1014.6 mb 0.00 in0.0 mm 0.00 in0.0 mm 0.00 in0.0 mm
02:55 AM 80.4°F26.9°C 78.6°F25.9°C 94% 0.9 mph WSW1.4 kmh WSW 0.9 mph1.4 kmh 29.96 in1014.6 mb 0.00 in0.0 mm 0.00 in0.0 mm 0.00 in0.0 mm
02:54 AM 80.4°F26.9°C 78.6°F25.9°C 94% 0.9 mph WSW1.4 kmh WSW 0.9 mph1.4 kmh 29.96 in1014.6 mb 0.00 in0.0 mm 0.00 in0.0 mm 0.00 in0.0 mm
02:53 AM 80.4°F26.9°C 78.6°F25.9°C 94% 0.9 mph WSW1.4 kmh WSW 0.9 mph1.4 kmh 29.96 in1014.6 mb 0.00 in0.0 mm 0.00 in0.0 mm 0.00 in0.0 mm
02:52 AM 80.4°F26.9°C 78.6°F25.9°C 94% 0.9 mph WSW1.4 kmh WSW 2.0 mph3.2 kmh 29.97 in1014.9 mb 0.00 in0.0 mm 0.00 in0.0 mm 0.00 in0.0 mm
02:51 AM 80.4°F26.9°C 78.6°F25.9°C 94% 0.9 mph WSW1.4 kmh WSW 2.0 mph3.2 kmh 29.97 in1014.9 mb 0.00 in0.0 mm 0.00 in0.0 mm 0.00 in0.0 mm
02:50 AM 80.4°F26.9°C 78.6°F25.9°C 94% 0.9 mph WSW1.4 kmh WSW 2.0 mph3.2 kmh 29.97 in1014.9 mb 0.00 in0.0 mm 0.00 in0.0 mm 0.00 in0.0 mm
02:49 AM 80.4°F26.9°C 78.6°F25.9°C 94% 0.9 mph WSW1.4 kmh WSW 2.0 mph3.2 kmh 29.97 in1014.9 mb 0.00 in0.0 mm 0.00 in0.0 mm 0.00 in0.0 mm
02:48 AM 80.4°F26.9°C 78.6°F25.9°C 94% 0.9 mph WSW1.4 kmh WSW 0.9 mph1.4 kmh 29.97 in1014.9 mb 0.00 in0.0 mm 0.00 in0.0 mm 0.00 in0.0 mm
02:47 AM 80.4°F26.9°C 78.6°F25.9°C 94% 0.9 mph WSW1.4 kmh WSW 0.9 mph1.4 kmh 29.96 in1014.6 mb 0.00 in0.0 mm 0.00 in0.0 mm 0.00 in0.0 mm
02:46 AM 80.4°F26.9°C 78.6°F25.9°C 94% 0.9 mph WSW1.4 kmh WSW 0.9 mph1.4 kmh 29.97 in1014.9 mb 0.00 in0.0 mm 0.00 in0.0 mm 0.00 in0.0 mm
02:45 AM 80.4°F26.9°C 78.6°F25.9°C 94% 0.9 mph WSW1.4 kmh WSW 2.0 mph3.2 kmh 29.97 in1014.9 mb 0.00 in0.0 mm 0.00 in0.0 mm 0.00 in0.0 mm
02:44 AM 80.4°F26.9°C 78.6°F25.9°C 94% 0.9 mph WSW1.4 kmh WSW 2.0 mph3.2 kmh 29.97 in1014.9 mb 0.00 in0.0 mm 0.00 in0.0 mm 0.00 in0.0 mm
02:43 AM 80.4°F26.9°C 78.6°F25.9°C 94% 0.9 mph WSW1.4 kmh WSW 2.0 mph3.2 kmh 29.96 in1014.6 mb 0.00 in0.0 mm 0.00 in0.0 mm 0.00 in0.0 mm
02:42 AM 80.4°F26.9°C 78.6°F25.9°C 94% 0.9 mph WSW1.4 kmh WSW 0.9 mph1.4 kmh 29.97 in1014.9 mb 0.00 in0.0 mm 0.00 in0.0 mm 0.00 in0.0 mm
02:41 AM 80.4°F26.9°C 78.6°F25.9°C 94% 0.9 mph WSW1.4 kmh WSW 0.9 mph1.4 kmh 29.97 in1014.9 mb 0.00 in0.0 mm 0.00 in0.0 mm 0.00 in0.0 mm
02:40 AM 80.6°F27.0°C 78.6°F25.9°C 94% 0.9 mph WSW1.4 kmh WSW 0.9 mph1.4 kmh 29.97 in1014.9 mb 0.00 in0.0 mm 0.00 in0.0 mm 0.00 in0.0 mm
02:39 AM 80.4°F26.9°C 78.6°F25.9°C 94% 0.9 mph WSW1.4 kmh WSW 2.0 mph3.2 kmh 29.97 in1014.9 mb 0.00 in0.0 mm 0.00 in0.0 mm 0.00 in0.0 mm
02:38 AM 80.6°F27.0°C 78.6°F25.9°C 94% 0.9 mph WSW1.4 kmh WSW 2.0 mph3.2 kmh 29.97 in1014.9 mb 0.00 in0.0 mm 0.00 in0.0 mm 0.00 in0.0 mm
02:37 AM 80.6°F27.0°C 78.6°F25.9°C 94% 0.9 mph WSW1.4 kmh WSW 3.0 mph4.8 kmh 29.97 in1014.9 mb 0.00 in0.0 mm 0.00 in0.0 mm 0.00 in0.0 mm
02:36 AM 80.6°F27.0°C 78.6°F25.9°C 94% 0.9 mph WSW1.4 kmh WSW 0.9 mph1.4 kmh 29.97 in1014.9 mb 0.00 in0.0 mm 0.00 in0.0 mm 0.00 in0.0 mm
02:35 AM 80.6°F27.0°C 78.6°F25.9°C 94% 0.9 mph WSW1.4 kmh WSW 2.0 mph3.2 kmh 29.97 in1014.9 mb 0.00 in0.0 mm 0.00 in0.0 mm 0.00 in0.0 mm
02:34 AM 80.6°F27.0°C 78.6°F25.9°C 94% 0.9 mph WSW1.4 kmh WSW 2.0 mph3.2 kmh 29.97 in1014.9 mb 0.00 in0.0 mm 0.00 in0.0 mm 0.00 in0.0 mm
02:33 AM 80.6°F27.0°C 78.6°F25.9°C 94% 0.9 mph WSW1.4 kmh WSW 0.9 mph1.4 kmh 29.97 in1014.9 mb 0.00 in0.0 mm 0.00 in0.0 mm 0.00 in0.0 mm
02:32 AM 80.6°F27.0°C 78.6°F25.9°C 94% 0.9 mph WSW1.4 kmh WSW 0.9 mph1.4 kmh 29.97 in1014.9 mb 0.00 in0.0 mm 0.00 in0.0 mm 0.00 in0.0 mm
02:31 AM 80.6°F27.0°C 78.6°F25.9°C 94% 0.9 mph WSW1.4 kmh WSW 0.9 mph1.4 kmh 29.97 in1014.9 mb 0.00 in0.0 mm 0.00 in0.0 mm 0.00 in0.0 mm
02:30 AM 80.6°F27.0°C 78.6°F25.9°C 94% 2.0 mph WSW3.2 kmh WSW 0.9 mph1.4 kmh 29.97 in1014.9 mb 0.00 in0.0 mm 0.00 in0.0 mm 0.00 in0.0 mm
02:29 AM 80.6°F27.0°C 78.6°F25.9°C 94% 2.0 mph WSW3.2 kmh WSW 2.0 mph3.2 kmh 29.97 in1014.9 mb 0.00 in0.0 mm 0.00 in0.0 mm 0.00 in0.0 mm
02:28 AM 80.6°F27.0°C 78.6°F25.9°C 94% 0.9 mph WSW1.4 kmh WSW 2.0 mph3.2 kmh 29.97 in1014.9 mb 0.00 in0.0 mm 0.00 in0.0 mm 0.00 in0.0 mm
02:27 AM 80.4°F26.9°C 78.6°F25.9°C 94% 0.9 mph WSW1.4 kmh WSW 3.0 mph4.8 kmh 29.97 in1014.9 mb 0.00 in0.0 mm 0.00 in0.0 mm 0.00 in0.0 mm
02:26 AM 80.4°F26.9°C 78.6°F25.9°C 94% 0.9 mph WSW1.4 kmh WSW 3.0 mph4.8 kmh 29.97 in1014.9 mb 0.00 in0.0 mm 0.00 in0.0 mm 0.00 in0.0 mm
02:25 AM 80.6°F27.0°C 78.6°F25.9°C 94% 0.9 mph WSW1.4 kmh WSW 2.0 mph3.2 kmh 29.97 in1014.9 mb 0.00 in0.0 mm 0.00 in0.0 mm 0.00 in0.0 mm
02:24 AM 80.4°F26.9°C 78.6°F25.9°C 94% 2.0 mph WSW3.2 kmh WSW 2.0 mph3.2 kmh 29.97 in1014.9 mb 0.00 in0.0 mm 0.00 in0.0 mm 0.00 in0.0 mm
02:23 AM 80.4°F26.9°C 78.6°F25.9°C 94% 2.0 mph WSW3.2 kmh WSW 2.0 mph3.2 kmh 29.97 in1014.9 mb 0.00 in0.0 mm 0.00 in0.0 mm 0.00 in0.0 mm
02:22 AM 80.4°F26.9°C 78.6°F25.9°C 94% 2.0 mph WSW3.2 kmh WSW 2.0 mph3.2 kmh 29.97 in1014.9 mb 0.00 in0.0 mm 0.00 in0.0 mm 0.00 in0.0 mm
02:21 AM 80.4°F26.9°C 78.6°F25.9°C 94% 2.0 mph WSW3.2 kmh WSW 2.0 mph3.2 kmh 29.97 in1014.9 mb 0.00 in0.0 mm 0.00 in0.0 mm 0.00 in0.0 mm
02:20 AM 80.4°F26.9°C 78.6°F25.9°C 94% 2.0 mph WSW3.2 kmh WSW 2.0 mph3.2 kmh 29.97 in1014.9 mb 0.00 in0.0 mm 0.00 in0.0 mm 0.00 in0.0 mm
02:19 AM 80.4°F26.9°C 78.6°F25.9°C 94% 2.0 mph WSW3.2 kmh WSW 2.0 mph3.2 kmh 29.97 in1014.9 mb 0.00 in0.0 mm 0.00 in0.0 mm 0.00 in0.0 mm
02:18 AM 80.4°F26.9°C 78.6°F25.9°C 94% 2.0 mph WSW3.2 kmh WSW 2.0 mph3.2 kmh 29.97 in1014.9 mb 0.00 in0.0 mm 0.00 in0.0 mm 0.00 in0.0 mm
02:17 AM 80.4°F26.9°C 78.6°F25.9°C 94% 2.0 mph WSW3.2 kmh WSW 2.9 mph4.7 kmh 29.97 in1014.9 mb 0.00 in0.0 mm 0.00 in0.0 mm 0.00 in0.0 mm
02:16 AM 80.4°F26.9°C 78.6°F25.9°C 94% 0.9 mph WSW1.4 kmh WSW 2.9 mph4.7 kmh 29.97 in1014.9 mb 0.00 in0.0 mm 0.00 in0.0 mm 0.00 in0.0 mm
02:15 AM 80.4°F26.9°C 78.6°F25.9°C 94% 0.9 mph WSW1.4 kmh WSW 3.0 mph4.8 kmh 29.97 in1014.9 mb 0.00 in0.0 mm 0.00 in0.0 mm 0.00 in0.0 mm
02:14 AM 80.4°F26.9°C 78.6°F25.9°C 94% 0.9 mph WSW1.4 kmh WSW 2.0 mph3.2 kmh 29.97 in1014.9 mb 0.00 in0.0 mm 0.00 in0.0 mm 0.00 in0.0 mm
02:13 AM 80.2°F26.8°C 78.4°F25.8°C 94% 0.9 mph WSW1.4 kmh WSW 2.0 mph3.2 kmh 29.97 in1014.9 mb 0.00 in0.0 mm 0.00 in0.0 mm 0.00 in0.0 mm
02:12 AM 80.2°F26.8°C 78.4°F25.8°C 94% 0.9 mph WSW1.4 kmh WSW 2.0 mph3.2 kmh 29.97 in1014.9 mb 0.00 in0.0 mm 0.00 in0.0 mm 0.00 in0.0 mm
02:11 AM 80.2°F26.8°C 78.1°F25.6°C 93% 0.9 mph WSW1.4 kmh WSW 2.0 mph3.2 kmh 29.97 in1014.9 mb 0.00 in0.0 mm 0.00 in0.0 mm 0.00 in0.0 mm
02:10 AM 80.4°F26.9°C 78.3°F25.7°C 93% Calm Calm 0.9 mph1.4 kmh 29.97 in1014.9 mb 0.00 in0.0 mm 0.00 in0.0 mm 0.00 in0.0 mm
02:09 AM 80.4°F26.9°C 78.3°F25.7°C 93% Calm Calm 0.9 mph1.4 kmh 29.97 in1014.9 mb 0.00 in0.0 mm 0.00 in0.0 mm 0.00 in0.0 mm
02:08 AM 80.4°F26.9°C 78.3°F25.7°C 93% Calm Calm 0.9 mph1.4 kmh 29.97 in1014.9 mb 0.00 in0.0 mm 0.00 in0.0 mm 0.00 in0.0 mm
02:07 AM 80.4°F26.9°C 78.3°F25.7°C 93% Calm Calm 0.9 mph1.4 kmh 29.97 in1014.9 mb 0.00 in0.0 mm 0.00 in0.0 mm 0.00 in0.0 mm
02:06 AM 80.4°F26.9°C 78.6°F25.9°C 94% Calm Calm 0.9 mph1.4 kmh 29.97 in1014.9 mb 0.00 in0.0 mm 0.00 in0.0 mm 0.00 in0.0 mm
02:05 AM 80.4°F26.9°C 78.6°F25.9°C 94% Calm Calm 0.9 mph1.4 kmh 29.97 in1014.9 mb 0.00 in0.0 mm 0.00 in0.0 mm 0.00 in0.0 mm
02:04 AM 80.4°F26.9°C 78.6°F25.9°C 94% Calm Calm 0.9 mph1.4 kmh 29.97 in1014.9 mb 0.00 in0.0 mm 0.00 in0.0 mm 0.00 in0.0 mm
02:03 AM 80.4°F26.9°C 78.3°F25.7°C 93% Calm Calm 0.9 mph1.4 kmh 29.97 in1014.9 mb 0.00 in0.0 mm 0.00 in0.0 mm 0.00 in0.0 mm
02:02 AM 80.4°F26.9°C 78.3°F25.7°C 93% Calm Calm 0.9 mph1.4 kmh 29.97 in1014.9 mb 0.00 in0.0 mm 0.00 in0.0 mm 0.00 in0.0 mm
02:01 AM 80.4°F26.9°C 78.3°F25.7°C 93% Calm Calm -- 29.98 in1015.2 mb 0.00 in0.0 mm 0.00 in0.0 mm 0.00 in0.0 mm
02:00 AM 80.4°F26.9°C 78.3°F25.7°C 93% Calm Calm -- 29.98 in1015.2 mb 0.00 in0.0 mm 0.00 in0.0 mm 0.00 in0.0 mm
01:59 AM 80.4°F26.9°C 78.6°F25.9°C 94% 0.9 mph WSW1.4 kmh WSW 0.9 mph1.4 kmh 29.98 in1015.2 mb 0.00 in0.0 mm 0.00 in0.0 mm 0.00 in0.0 mm
01:58 AM 80.6°F27.0°C 78.6°F25.9°C 94% 0.9 mph WSW1.4 kmh WSW 0.9 mph1.4 kmh 29.98 in1015.2 mb 0.00 in0.0 mm 0.00 in0.0 mm 0.00 in0.0 mm
01:56 AM 80.6°F27.0°C 78.6°F25.9°C 94% 0.9 mph WSW1.4 kmh WSW 0.9 mph1.4 kmh 29.98 in1015.2 mb 0.00 in0.0 mm 0.00 in0.0 mm 0.00 in0.0 mm
01:55 AM 80.6°F27.0°C 78.6°F25.9°C 94% 0.9 mph WSW1.4 kmh WSW 0.9 mph1.4 kmh 29.98 in1015.2 mb 0.00 in0.0 mm 0.00 in0.0 mm 0.00 in0.0 mm
01:54 AM 80.8°F27.1°C 78.8°F26.0°C 94% 0.9 mph WSW1.4 kmh WSW 0.9 mph1.4 kmh 29.98 in1015.2 mb 0.00 in0.0 mm 0.00 in0.0 mm 0.00 in0.0 mm
01:53 AM 80.8°F27.1°C 78.8°F26.0°C 94% 0.9 mph WSW1.4 kmh WSW 0.9 mph1.4 kmh 29.98 in1015.2 mb 0.00 in0.0 mm 0.00 in0.0 mm 0.00 in0.0 mm
01:52 AM 80.8°F27.1°C 78.8°F26.0°C 94% 0.9 mph WSW1.4 kmh WSW 0.9 mph1.4 kmh 29.98 in1015.2 mb 0.00 in0.0 mm 0.00 in0.0 mm 0.00 in0.0 mm
01:51 AM 80.8°F27.1°C 78.8°F26.0°C 94% 0.9 mph WSW1.4 kmh WSW 0.9 mph1.4 kmh 29.98 in1015.2 mb 0.00 in0.0 mm 0.00 in0.0 mm 0.00 in0.0 mm
01:50 AM 80.8°F27.1°C 78.8°F26.0°C 94% 0.9 mph WSW1.4 kmh WSW 0.9 mph1.4 kmh 29.98 in1015.2 mb 0.00 in0.0 mm 0.00 in0.0 mm 0.00 in0.0 mm
01:49 AM 80.8°F27.1°C 78.8°F26.0°C 94% 0.9 mph WSW1.4 kmh WSW 0.9 mph1.4 kmh 29.98 in1015.2 mb 0.00 in0.0 mm 0.00 in0.0 mm 0.00 in0.0 mm
01:48 AM 80.8°F27.1°C 78.8°F26.0°C 94% 0.9 mph WSW1.4 kmh WSW 0.9 mph1.4 kmh 29.98 in1015.2 mb 0.00 in0.0 mm 0.00 in0.0 mm 0.00 in0.0 mm
01:47 AM 80.8°F27.1°C 78.8°F26.0°C 94% 0.9 mph WSW1.4 kmh WSW 0.9 mph1.4 kmh 29.98 in1015.2 mb 0.00 in0.0 mm 0.00 in0.0 mm 0.00 in0.0 mm
01:46 AM 80.8°F27.1°C 78.8°F26.0°C 94% 0.9 mph WSW1.4 kmh WSW 0.9 mph1.4 kmh 29.98 in1015.2 mb 0.00 in0.0 mm 0.00 in0.0 mm 0.00 in0.0 mm
01:45 AM 80.8°F27.1°C 78.8°F26.0°C 94% 0.9 mph WSW1.4 kmh WSW 0.9 mph1.4 kmh 29.98 in1015.2 mb 0.00 in0.0 mm 0.00 in0.0 mm 0.00 in0.0 mm
01:44 AM 80.8°F27.1°C 78.8°F26.0°C 94% 0.9 mph WSW1.4 kmh WSW 0.9 mph1.4 kmh 29.98 in1015.2 mb 0.00 in0.0 mm 0.00 in0.0 mm 0.00 in0.0 mm
01:43 AM 80.8°F27.1°C 78.8°F26.0°C 94% 0.9 mph WSW1.4 kmh WSW 0.9 mph1.4 kmh 29.98 in1015.2 mb 0.00 in0.0 mm 0.00 in0.0 mm 0.00 in0.0 mm
01:42 AM 80.8°F27.1°C 78.8°F26.0°C 94% 0.9 mph WSW1.4 kmh WSW 0.9 mph1.4 kmh 29.98 in1015.2 mb 0.00 in0.0 mm 0.00 in0.0 mm 0.00 in0.0 mm
01:41 AM 80.8°F27.1°C 78.8°F26.0°C 94% 0.9 mph WSW1.4 kmh WSW 0.9 mph1.4 kmh 29.98 in1015.2 mb 0.00 in0.0 mm 0.00 in0.0 mm 0.00 in0.0 mm
01:40 AM 80.8°F27.1°C 78.8°F26.0°C 94% 0.9 mph WSW1.4 kmh WSW 0.9 mph1.4 kmh 29.98 in1015.2 mb 0.00 in0.0 mm 0.00 in0.0 mm 0.00 in0.0 mm
01:39 AM 80.8°F27.1°C 78.8°F26.0°C 94% 0.9 mph WSW1.4 kmh WSW 0.9 mph1.4 kmh 29.98 in1015.2 mb 0.00 in0.0 mm 0.00 in0.0 mm 0.00 in0.0 mm
01:38 AM 80.8°F27.1°C 78.8°F26.0°C 94% 0.9 mph WSW1.4 kmh WSW 0.9 mph1.4 kmh 29.98 in1015.2 mb 0.00 in0.0 mm 0.00 in0.0 mm 0.00 in0.0 mm
01:37 AM 80.8°F27.1°C 78.8°F26.0°C 94% Calm Calm 0.9 mph1.4 kmh 29.98 in1015.2 mb 0.00 in0.0 mm 0.00 in0.0 mm 0.00 in0.0 mm
01:36 AM 80.8°F27.1°C 78.8°F26.0°C 94% Calm Calm 0.9 mph1.4 kmh 29.98 in1015.2 mb 0.00 in0.0 mm 0.00 in0.0 mm 0.00 in0.0 mm
01:35 AM 80.8°F27.1°C 78.8°F26.0°C 94% Calm Calm 0.9 mph1.4 kmh 29.98 in1015.2 mb 0.00 in0.0 mm 0.00 in0.0 mm 0.00 in0.0 mm
01:34 AM 81.0°F27.2°C 79.0°F26.1°C 94% Calm Calm 0.9 mph1.4 kmh 29.98 in1015.2 mb 0.00 in0.0 mm 0.00 in0.0 mm 0.00 in0.0 mm
01:33 AM 80.8°F27.1°C 78.8°F26.0°C 94% Calm Calm 0.9 mph1.4 kmh 29.98 in1015.2 mb 0.00 in0.0 mm 0.00 in0.0 mm 0.00 in0.0 mm
01:32 AM 81.0°F27.2°C 79.0°F26.1°C 94% Calm Calm 0.9 mph1.4 kmh 29.99 in1015.6 mb 0.00 in0.0 mm 0.00 in0.0 mm 0.00 in0.0 mm
01:31 AM 80.8°F27.1°C 78.8°F26.0°C 94% Calm Calm 0.9 mph1.4 kmh 29.99 in1015.6 mb 0.00 in0.0 mm 0.00 in0.0 mm 0.00 in0.0 mm
01:30 AM 80.8°F27.1°C 78.8°F26.0°C 94% Calm Calm 0.9 mph1.4 kmh 29.99 in1015.6 mb 0.00 in0.0 mm 0.00 in0.0 mm 0.00 in0.0 mm
01:29 AM 80.8°F27.1°C 78.8°F26.0°C 94% Calm Calm 0.9 mph1.4 kmh 29.99 in1015.6 mb 0.00 in0.0 mm 0.00 in0.0 mm 0.00 in0.0 mm
01:28 AM 81.0°F27.2°C 79.0°F26.1°C 94% Calm Calm 0.9 mph1.4 kmh 29.99 in1015.6 mb 0.00 in0.0 mm 0.00 in0.0 mm 0.00 in0.0 mm
01:27 AM 80.8°F27.1°C 78.8°F26.0°C 94% Calm Calm 2.0 mph3.2 kmh 29.99 in1015.6 mb 0.00 in0.0 mm 0.00 in0.0 mm 0.00 in0.0 mm
01:26 AM 80.8°F27.1°C 78.8°F26.0°C 94% Calm Calm 2.0 mph3.2 kmh 29.99 in1015.6 mb 0.00 in0.0 mm 0.00 in0.0 mm 0.00 in0.0 mm
01:25 AM 81.0°F27.2°C 79.0°F26.1°C 94% Calm Calm 0.9 mph1.4 kmh 29.99 in1015.6 mb 0.00 in0.0 mm 0.00 in0.0 mm 0.00 in0.0 mm
01:24 AM 81.0°F27.2°C 79.0°F26.1°C 94% Calm Calm 0.9 mph1.4 kmh 29.99 in1015.6 mb 0.00 in0.0 mm 0.00 in0.0 mm 0.00 in0.0 mm
01:23 AM 81.0°F27.2°C 79.0°F26.1°C 94% 0.9 mph WSW1.4 kmh WSW 0.9 mph1.4 kmh 29.98 in1015.2 mb 0.00 in0.0 mm 0.00 in0.0 mm 0.00 in0.0 mm
01:22 AM 80.8°F27.1°C 78.8°F26.0°C 94% 0.9 mph WSW1.4 kmh WSW 0.9 mph1.4 kmh 29.99 in1015.6 mb 0.00 in0.0 mm 0.00 in0.0 mm 0.00 in0.0 mm
01:21 AM 81.0°F27.2°C 79.0°F26.1°C 94% 0.9 mph WSW1.4 kmh WSW 0.9 mph1.4 kmh 29.99 in1015.6 mb 0.00 in0.0 mm 0.00 in0.0 mm 0.00 in0.0 mm
01:20 AM 81.0°F27.2°C 79.0°F26.1°C 94% 0.9 mph WSW1.4 kmh WSW 0.9 mph1.4 kmh 29.99 in1015.6 mb 0.00 in0.0 mm 0.00 in0.0 mm 0.00 in0.0 mm
01:19 AM 81.0°F27.2°C 79.0°F26.1°C 94% 0.9 mph WSW1.4 kmh WSW 0.9 mph1.4 kmh 29.99 in1015.6 mb 0.00 in0.0 mm 0.00 in0.0 mm 0.00 in0.0 mm
01:18 AM 81.0°F27.2°C 79.0°F26.1°C 94% 0.9 mph WSW1.4 kmh WSW 0.9 mph1.4 kmh 29.99 in1015.6 mb 0.00 in0.0 mm 0.00 in0.0 mm 0.00 in0.0 mm
01:17 AM 81.0°F27.2°C 79.0°F26.1°C 94% 0.9 mph WSW1.4 kmh WSW 2.0 mph3.2 kmh 29.99 in1015.6 mb 0.00 in0.0 mm 0.00 in0.0 mm 0.00 in0.0 mm
01:16 AM 81.0°F27.2°C 79.0°F26.1°C 94% 0.9 mph WSW1.4 kmh WSW 2.0 mph3.2 kmh 29.99 in1015.6 mb 0.00 in0.0 mm 0.00 in0.0 mm 0.00 in0.0 mm
01:15 AM 81.0°F27.2°C 79.0°F26.1°C 94% 0.9 mph WSW1.4 kmh WSW 3.0 mph4.8 kmh 29.99 in1015.6 mb 0.00 in0.0 mm 0.00 in0.0 mm 0.00 in0.0 mm
01:14 AM 81.0°F27.2°C 79.0°F26.1°C 94% 0.9 mph WSW1.4 kmh WSW 3.0 mph4.8 kmh 29.99 in1015.6 mb 0.00 in0.0 mm 0.00 in0.0 mm 0.00 in0.0 mm
01:13 AM 81.0°F27.2°C 79.0°F26.1°C 94% 0.9 mph WSW1.4 kmh WSW 3.0 mph4.8 kmh 29.99 in1015.6 mb 0.00 in0.0 mm 0.00 in0.0 mm 0.00 in0.0 mm
01:12 AM 81.0°F27.2°C 79.0°F26.1°C 94% 0.9 mph WSW1.4 kmh WSW 0.9 mph1.4 kmh 29.99 in1015.6 mb 0.00 in0.0 mm 0.00 in0.0 mm 0.00 in0.0 mm
01:11 AM 81.0°F27.2°C 79.0°F26.1°C 94% 0.9 mph WSW1.4 kmh WSW 0.9 mph1.4 kmh 29.99 in1015.6 mb 0.00 in0.0 mm 0.00 in0.0 mm 0.00 in0.0 mm
01:10 AM 81.0°F27.2°C 79.0°F26.1°C 94% 0.9 mph WSW1.4 kmh WSW 0.9 mph1.4 kmh 29.99 in1015.6 mb 0.00 in0.0 mm 0.00 in0.0 mm 0.00 in0.0 mm
01:09 AM 81.0°F27.2°C 79.0°F26.1°C 94% 0.9 mph WSW1.4 kmh WSW 0.9 mph1.4 kmh 29.99 in1015.6 mb 0.00 in0.0 mm 0.00 in0.0 mm 0.00 in0.0 mm
01:08 AM 81.0°F27.2°C 79.0°F26.1°C 94% 2.0 mph WSW3.2 kmh WSW 2.0 mph3.2 kmh 29.99 in1015.6 mb 0.00 in0.0 mm 0.00 in0.0 mm 0.00 in0.0 mm
01:07 AM 81.0°F27.2°C 79.0°F26.1°C 94% 2.0 mph WSW3.2 kmh WSW 2.0 mph3.2 kmh 29.99 in1015.6 mb 0.00 in0.0 mm 0.00 in0.0 mm 0.00 in0.0 mm
01:06 AM 81.0°F27.2°C 79.0°F26.1°C 94% 2.0 mph WSW3.2 kmh WSW 2.0 mph3.2 kmh 29.99 in1015.6 mb 0.00 in0.0 mm 0.00 in0.0 mm 0.00 in0.0 mm
01:05 AM 81.0°F27.2°C 79.0°F26.1°C 94% 2.0 mph WSW3.2 kmh WSW 2.9 mph4.7 kmh 29.99 in1015.6 mb 0.00 in0.0 mm 0.00 in0.0 mm 0.00 in0.0 mm
01:04 AM 81.0°F27.2°C 79.0°F26.1°C 94% 2.0 mph WSW3.2 kmh WSW 2.9 mph4.7 kmh 29.99 in1015.6 mb 0.00 in0.0 mm 0.00 in0.0 mm 0.00 in0.0 mm
01:03 AM 81.0°F27.2°C 79.0°F26.1°C 94% 2.0 mph WSW3.2 kmh WSW 2.0 mph3.2 kmh 29.99 in1015.6 mb 0.00 in0.0 mm 0.00 in0.0 mm 0.00 in0.0 mm
01:02 AM 81.1°F27.3°C 79.2°F26.2°C 94% 2.0 mph WSW3.2 kmh WSW 2.9 mph4.7 kmh 29.99 in1015.6 mb 0.00 in0.0 mm 0.00 in0.0 mm 0.00 in0.0 mm
01:01 AM 81.1°F27.3°C 79.2°F26.2°C 94% 0.9 mph WSW1.4 kmh WSW 2.9 mph4.7 kmh 29.98 in1015.2 mb 0.00 in0.0 mm 0.00 in0.0 mm 0.00 in0.0 mm
01:00 AM 81.0°F27.2°C 79.0°F26.1°C 94% 0.9 mph WSW1.4 kmh WSW 3.0 mph4.8 kmh 29.98 in1015.2 mb 0.00 in0.0 mm 0.00 in0.0 mm 0.00 in0.0 mm
12:59 AM 81.0°F27.2°C 79.0°F26.1°C 94% 0.9 mph WSW1.4 kmh WSW 3.0 mph4.8 kmh 29.99 in1015.6 mb 0.00 in0.0 mm 0.00 in0.0 mm 0.00 in0.0 mm
12:58 AM 81.0°F27.2°C 79.0°F26.1°C 94% 0.9 mph WSW1.4 kmh WSW 2.0 mph3.2 kmh 29.99 in1015.6 mb 0.00 in0.0 mm 0.00 in0.0 mm 0.00 in0.0 mm
12:57 AM 81.0°F27.2°C 79.0°F26.1°C 94% 0.9 mph WSW1.4 kmh WSW 2.0 mph3.2 kmh 29.99 in1015.6 mb 0.00 in0.0 mm 0.00 in0.0 mm 0.00 in0.0 mm
12:56 AM 81.0°F27.2°C 78.8°F26.0°C 93% 0.9 mph WSW1.4 kmh WSW 2.0 mph3.2 kmh 29.99 in1015.6 mb 0.00 in0.0 mm 0.00 in0.0 mm 0.00 in0.0 mm
12:55 AM 81.0°F27.2°C 78.8°F26.0°C 93% 0.9 mph WSW1.4 kmh WSW 2.0 mph3.2 kmh 29.99 in1015.6 mb 0.00 in0.0 mm 0.00 in0.0 mm 0.00 in0.0 mm
12:54 AM 81.0°F27.2°C 78.8°F26.0°C 93% 0.9 mph WSW1.4 kmh WSW 0.9 mph1.4 kmh 29.99 in1015.6 mb 0.00 in0.0 mm 0.00 in0.0 mm 0.00 in0.0 mm
12:52 AM 81.0°F27.2°C 78.8°F26.0°C 93% 0.9 mph WSW1.4 kmh WSW 0.9 mph1.4 kmh 29.99 in1015.6 mb 0.00 in0.0 mm 0.00 in0.0 mm 0.00 in0.0 mm
12:51 AM 81.0°F27.2°C 78.8°F26.0°C 93% Calm Calm 0.9 mph1.4 kmh 29.99 in1015.6 mb 0.00 in0.0 mm 0.00 in0.0 mm 0.00 in0.0 mm
12:50 AM 81.0°F27.2°C 78.8°F26.0°C 93% 0.9 mph WSW1.4 kmh WSW -- 29.99 in1015.6 mb 0.00 in0.0 mm 0.00 in0.0 mm 0.00 in0.0 mm
12:49 AM 81.0°F27.2°C 78.8°F26.0°C 93% 0.9 mph WSW1.4 kmh WSW -- 29.99 in1015.6 mb 0.00 in0.0 mm 0.00 in0.0 mm 0.00 in0.0 mm
12:48 AM 81.0°F27.2°C 78.4°F25.8°C 92% 0.9 mph WSW1.4 kmh WSW 0.9 mph1.4 kmh 29.99 in1015.6 mb 0.00 in0.0 mm 0.00 in0.0 mm 0.00 in0.0 mm
12:47 AM 81.0°F27.2°C 78.4°F25.8°C 92% 0.9 mph WSW1.4 kmh WSW 0.9 mph1.4 kmh 29.99 in1015.6 mb 0.00 in0.0 mm 0.00 in0.0 mm 0.00 in0.0 mm
12:46 AM 81.0°F27.2°C 78.4°F25.8°C 92% 0.9 mph WSW1.4 kmh WSW 2.0 mph3.2 kmh 29.99 in1015.6 mb 0.00 in0.0 mm 0.00 in0.0 mm 0.00 in0.0 mm
12:45 AM 81.0°F27.2°C 78.4°F25.8°C 92% 0.9 mph WSW1.4 kmh WSW 0.9 mph1.4 kmh 29.99 in1015.6 mb 0.00 in0.0 mm 0.00 in0.0 mm 0.00 in0.0 mm
12:44 AM 81.0°F27.2°C 78.4°F25.8°C 92% Calm Calm 0.9 mph1.4 kmh 29.99 in1015.6 mb 0.00 in0.0 mm 0.00 in0.0 mm 0.00 in0.0 mm
12:43 AM 81.0°F27.2°C 78.4°F25.8°C 92% Calm Calm 0.9 mph1.4 kmh 29.99 in1015.6 mb 0.00 in0.0 mm 0.00 in0.0 mm 0.00 in0.0 mm
12:42 AM 81.0°F27.2°C 78.4°F25.8°C 92% 0.9 mph WSW1.4 kmh WSW 0.9 mph1.4 kmh 29.99 in1015.6 mb 0.00 in0.0 mm 0.00 in0.0 mm 0.00 in0.0 mm
12:41 AM 81.0°F27.2°C 78.4°F25.8°C 92% 0.9 mph WSW1.4 kmh WSW 0.9 mph1.4 kmh 29.99 in1015.6 mb 0.00 in0.0 mm 0.00 in0.0 mm 0.00 in0.0 mm
12:40 AM 81.1°F27.3°C 78.6°F25.9°C 92% 0.9 mph WSW1.4 kmh WSW 0.9 mph1.4 kmh 29.99 in1015.6 mb 0.00 in0.0 mm 0.00 in0.0 mm 0.00 in0.0 mm
12:39 AM 81.1°F27.3°C 78.6°F25.9°C 92% 0.9 mph WSW1.4 kmh WSW 0.9 mph1.4 kmh 29.99 in1015.6 mb 0.00 in0.0 mm 0.00 in0.0 mm 0.00 in0.0 mm
12:38 AM 81.1°F27.3°C 78.6°F25.9°C 92% 0.9 mph WSW1.4 kmh WSW 0.9 mph1.4 kmh 30.00 in1015.9 mb 0.00 in0.0 mm 0.00 in0.0 mm 0.00 in0.0 mm
12:37 AM 81.1°F27.3°C 78.6°F25.9°C 92% 0.9 mph WSW1.4 kmh WSW 0.9 mph1.4 kmh 29.99 in1015.6 mb 0.00 in0.0 mm 0.00 in0.0 mm 0.00 in0.0 mm
12:36 AM 81.1°F27.3°C 78.6°F25.9°C 92% 0.9 mph WSW1.4 kmh WSW 0.9 mph1.4 kmh 29.99 in1015.6 mb 0.00 in0.0 mm 0.00 in0.0 mm 0.00 in0.0 mm
12:35 AM 81.1°F27.3°C 78.3°F25.7°C 91% 0.9 mph WSW1.4 kmh WSW 0.9 mph1.4 kmh 29.99 in1015.6 mb 0.00 in0.0 mm 0.00 in0.0 mm 0.00 in0.0 mm
12:34 AM 81.1°F27.3°C 78.3°F25.7°C 91% 0.9 mph WSW1.4 kmh WSW 0.9 mph1.4 kmh 29.99 in1015.6 mb 0.00 in0.0 mm 0.00 in0.0 mm 0.00 in0.0 mm
12:33 AM 81.1°F27.3°C 78.3°F25.7°C 91% 0.9 mph WSW1.4 kmh WSW 3.0 mph4.8 kmh 30.00 in1015.9 mb 0.00 in0.0 mm 0.00 in0.0 mm 0.00 in0.0 mm
12:32 AM 81.1°F27.3°C 78.3°F25.7°C 91% 0.9 mph WSW1.4 kmh WSW 3.0 mph4.8 kmh 29.99 in1015.6 mb 0.00 in0.0 mm 0.00 in0.0 mm 0.00 in0.0 mm
12:31 AM 81.1°F27.3°C 78.3°F25.7°C 91% 0.9 mph WSW1.4 kmh WSW 2.0 mph3.2 kmh 30.00 in1015.9 mb 0.00 in0.0 mm 0.00 in0.0 mm 0.00 in0.0 mm
12:30 AM 81.1°F27.3°C 78.3°F25.7°C 91% 0.9 mph WSW1.4 kmh WSW 2.0 mph3.2 kmh 30.00 in1015.9 mb 0.00 in0.0 mm 0.00 in0.0 mm 0.00 in0.0 mm
12:29 AM 81.1°F27.3°C 78.3°F25.7°C 91% 2.0 mph WSW3.2 kmh WSW 2.0 mph3.2 kmh 30.00 in1015.9 mb 0.00 in0.0 mm 0.00 in0.0 mm 0.00 in0.0 mm
12:28 AM 81.1°F27.3°C 78.3°F25.7°C 91% 2.0 mph WSW3.2 kmh WSW 2.0 mph3.2 kmh 30.00 in1015.9 mb 0.00 in0.0 mm 0.00 in0.0 mm 0.00 in0.0 mm
12:27 AM 81.1°F27.3°C 78.3°F25.7°C 91% 2.0 mph WSW3.2 kmh WSW 2.0 mph3.2 kmh 30.00 in1015.9 mb 0.00 in0.0 mm 0.00 in0.0 mm 0.00 in0.0 mm
12:26 AM 81.1°F27.3°C 78.3°F25.7°C 91% 2.0 mph WSW3.2 kmh WSW 2.0 mph3.2 kmh 30.00 in1015.9 mb 0.00 in0.0 mm 0.00 in0.0 mm 0.00 in0.0 mm
12:25 AM 81.1°F27.3°C 78.3°F25.7°C 91% 2.0 mph WSW3.2 kmh WSW 2.0 mph3.2 kmh 30.00 in1015.9 mb 0.00 in0.0 mm 0.00 in0.0 mm 0.00 in0.0 mm
12:24 AM 81.1°F27.3°C 78.3°F25.7°C 91% 2.0 mph WSW3.2 kmh WSW 2.0 mph3.2 kmh 30.00 in1015.9 mb 0.00 in0.0 mm 0.00 in0.0 mm 0.00 in0.0 mm
12:23 AM 81.1°F27.3°C 78.3°F25.7°C 91% 2.0 mph WSW3.2 kmh WSW 2.9 mph4.7 kmh 30.00 in1015.9 mb 0.00 in0.0 mm 0.00 in0.0 mm 0.00 in0.0 mm
12:22 AM 81.1°F27.3°C 77.9°F25.5°C 90% 2.0 mph WSW3.2 kmh WSW 2.9 mph4.7 kmh 30.00 in1015.9 mb 0.00 in0.0 mm 0.00 in0.0 mm 0.00 in0.0 mm
12:21 AM 81.1°F27.3°C 77.9°F25.5°C 90% 2.0 mph WSW3.2 kmh WSW 2.9 mph4.7 kmh 30.00 in1015.9 mb 0.00 in0.0 mm 0.00 in0.0 mm 0.00 in0.0 mm
12:20 AM 81.1°F27.3°C 77.9°F25.5°C 90% 2.0 mph WSW3.2 kmh WSW 2.0 mph3.2 kmh 30.00 in1015.9 mb 0.00 in0.0 mm 0.00 in0.0 mm 0.00 in0.0 mm
12:19 AM 81.1°F27.3°C 77.9°F25.5°C 90% 2.0 mph WSW3.2 kmh WSW 2.9 mph4.7 kmh 30.00 in1015.9 mb 0.00 in0.0 mm 0.00 in0.0 mm 0.00 in0.0 mm
12:18 AM 81.1°F27.3°C 77.9°F25.5°C 90% 2.0 mph WSW3.2 kmh WSW 2.9 mph4.7 kmh 30.00 in1015.9 mb 0.00 in0.0 mm 0.00 in0.0 mm 0.00 in0.0 mm
12:17 AM 81.1°F27.3°C 77.9°F25.5°C 90% 2.0 mph WSW3.2 kmh WSW 2.9 mph4.7 kmh 30.00 in1015.9 mb 0.00 in0.0 mm 0.00 in0.0 mm 0.00 in0.0 mm
12:16 AM 81.1°F27.3°C 77.9°F25.5°C 90% 2.0 mph SW3.2 kmh SW 2.0 mph3.2 kmh 30.00 in1015.9 mb 0.00 in0.0 mm 0.00 in0.0 mm 0.00 in0.0 mm
12:15 AM 81.1°F27.3°C 77.9°F25.5°C 90% 2.0 mph SW3.2 kmh SW 2.0 mph3.2 kmh 29.99 in1015.6 mb 0.00 in0.0 mm 0.00 in0.0 mm 0.00 in0.0 mm
12:14 AM 81.1°F27.3°C 77.9°F25.5°C 90% 0.9 mph SW1.4 kmh SW 2.9 mph4.7 kmh 30.00 in1015.9 mb 0.00 in0.0 mm 0.00 in0.0 mm 0.00 in0.0 mm
12:13 AM 81.3°F27.4°C 78.1°F25.6°C 90% 0.9 mph SW1.4 kmh SW 3.0 mph4.8 kmh 29.99 in1015.6 mb 0.00 in0.0 mm 0.00 in0.0 mm 0.00 in0.0 mm
12:12 AM 81.3°F27.4°C 78.1°F25.6°C 90% 0.9 mph SW1.4 kmh SW 3.0 mph4.8 kmh 29.99 in1015.6 mb 0.00 in0.0 mm 0.00 in0.0 mm 0.00 in0.0 mm
12:11 AM 81.3°F27.4°C 78.1°F25.6°C 90% 0.9 mph SW1.4 kmh SW 2.0 mph3.2 kmh 29.99 in1015.6 mb 0.00 in0.0 mm 0.00 in0.0 mm 0.00 in0.0 mm
12:10 AM 81.3°F27.4°C 78.1°F25.6°C 90% 0.9 mph SW1.4 kmh SW 2.0 mph3.2 kmh 29.99 in1015.6 mb 0.00 in0.0 mm 0.00 in0.0 mm 0.00 in0.0 mm
12:09 AM 81.3°F27.4°C 78.1°F25.6°C 90% 0.9 mph SW1.4 kmh SW 2.0 mph3.2 kmh 29.99 in1015.6 mb 0.00 in0.0 mm 0.00 in0.0 mm 0.00 in0.0 mm
12:08 AM 81.3°F27.4°C 78.1°F25.6°C 90% 0.9 mph SW1.4 kmh SW 2.0 mph3.2 kmh 29.99 in1015.6 mb 0.00 in0.0 mm 0.00 in0.0 mm 0.00 in0.0 mm
12:07 AM 81.3°F27.4°C 78.1°F25.6°C 90% 0.9 mph SW1.4 kmh SW 2.0 mph3.2 kmh 29.99 in1015.6 mb 0.00 in0.0 mm 0.00 in0.0 mm 0.00 in0.0 mm
12:06 AM 81.3°F27.4°C 78.1°F25.6°C 90% 0.9 mph SW1.4 kmh SW 0.9 mph1.4 kmh 29.99 in1015.6 mb 0.00 in0.0 mm 0.00 in0.0 mm 0.00 in0.0 mm
12:05 AM 81.3°F27.4°C 78.1°F25.6°C 90% 0.9 mph SW1.4 kmh SW 0.9 mph1.4 kmh 29.99 in1015.6 mb 0.00 in0.0 mm 0.00 in0.0 mm 0.00 in0.0 mm
12:04 AM 81.3°F27.4°C 78.1°F25.6°C 90% 0.9 mph SW1.4 kmh SW 0.9 mph1.4 kmh 29.99 in1015.6 mb 0.00 in0.0 mm 0.00 in0.0 mm 0.00 in0.0 mm
12:03 AM 81.3°F27.4°C 78.1°F25.6°C 90% 0.9 mph SW1.4 kmh SW 2.0 mph3.2 kmh 29.99 in1015.6 mb 0.00 in0.0 mm 0.00 in0.0 mm 0.00 in0.0 mm
12:02 AM 81.3°F27.4°C 78.1°F25.6°C 90% 0.9 mph SW1.4 kmh SW 2.0 mph3.2 kmh 29.99 in1015.6 mb 0.00 in0.0 mm 0.00 in0.0 mm 0.00 in0.0 mm
12:01 AM 81.3°F27.4°C 78.1°F25.6°C 90% 0.9 mph SW1.4 kmh SW 0.9 mph1.4 kmh 29.99 in1015.6 mb 0.00 in0.0 mm 0.00 in0.0 mm 0.00 in0.0 mm
12:00 AM 81.3°F27.4°C 78.1°F25.6°C 90% 0.9 mph SW1.4 kmh SW 0.9 mph1.4 kmh 29.99 in1015.6 mb 0.00 in0.0 mm 0.00 in0.0 mm 0.00 in0.0 mm